Time;durP1;ratioP1;P1;durP2;ratioP2;P2;SDS_P1;SDS_P2;PMS_P1;PMS_P2;Temp;Humidity;BMP_temperature;BMP_pressure;BME280_temperature;BME280_humidity;BME280_pressure;Samples;Min_cycle;Max_cycle;Signal;HPM_P1;HPM_P2
2022/06/17 00:02:25;;;;;;;1.42;0.80;;;;;;;14.09;100.00;100014.00;5103301;27;20797;-65
2022/06/17 00:05:09;;;;;;;4.22;0.93;;;;;;;14.05;100.00;100015.03;5105378;27;20032;-64
2022/06/17 00:07:53;;;;;;;3.15;0.68;;;;;;;13.94;100.00;100007.50;5104629;27;20618;-64
2022/06/17 00:10:38;;;;;;;1.42;0.90;;;;;;;13.97;100.00;100021.44;5107158;27;20047;-64
2022/06/17 00:13:26;;;;;;;2.55;0.90;;;;;;;13.90;100.00;100021.69;5103943;27;20470;-64
2022/06/17 00:16:12;;;;;;;1.65;0.77;;;;;;;13.92;100.00;100020.72;5106246;27;20475;-65
2022/06/17 00:18:57;;;;;;;1.35;0.80;;;;;;;13.92;100.00;100023.34;5104066;27;20042;-66
2022/06/17 00:21:44;;;;;;;2.30;0.60;;;;;;;13.89;100.00;100025.25;5101802;27;20123;-61
2022/06/17 00:24:31;;;;;;;1.98;0.95;;;;;;;13.92;100.00;100036.53;5104414;27;20051;-64
2022/06/17 00:27:16;;;;;;;2.50;0.68;;;;;;;13.84;100.00;100027.16;5102066;28;20090;-64
2022/06/17 00:30:00;;;;;;;4.90;0.70;;;;;;;13.92;100.00;100052.31;5102703;28;20043;-64
2022/06/17 00:32:45;;;;;;;2.55;0.60;;;;;;;13.87;100.00;100053.38;5102569;27;20044;-64
2022/06/17 00:35:36;;;;;;;2.05;0.70;;;;;;;13.92;100.00;100049.69;5116413;27;20032;-63
2022/06/17 00:38:28;;;;;;;1.85;0.75;;;;;;;13.97;100.00;100062.69;5101979;27;20031;-64
2022/06/17 00:41:25;;;;;;;1.52;0.70;;;;;;;13.99;100.00;100056.44;5101010;27;20811;-64
2022/06/17 00:44:42;;;;;;;3.33;0.73;;;;;;;13.99;100.00;100067.00;5102942;27;20063;-65
2022/06/17 00:47:39;;;;;;;1.90;0.80;;;;;;;13.95;100.00;100065.38;5106448;27;20050;-65
2022/06/17 00:50:32;;;;;;;1.98;0.90;;;;;;;13.80;100.00;100076.44;5107175;27;20036;-66
2022/06/17 00:53:20;;;;;;;3.15;1.00;;;;;;;13.76;100.00;100073.03;5116341;27;20407;-64
2022/06/17 00:56:22;;;;;;;2.85;1.35;;;;;;;13.66;100.00;100084.81;5109283;27;20122;-64
2022/06/17 00:59:09;;;;;;;1.83;0.90;;;;;;;13.60;100.00;100081.50;5103839;28;20047;-63
2022/06/17 01:02:04;;;;;;;0.60;0.60;;;;;;;13.54;100.00;100067.63;5109408;27;20382;-64
2022/06/17 01:04:53;;;;;;;2.70;1.10;;;;;;;13.54;100.00;100085.19;5110863;27;20054;-65
2022/06/17 01:07:47;;;;;;;1.70;0.70;;;;;;;13.43;100.00;100067.13;5102281;27;20047;-63
2022/06/17 01:10:32;;;;;;;3.55;0.93;;;;;;;13.43;100.00;100080.28;5100430;27;20595;-64
2022/06/17 01:13:16;;;;;;;3.20;1.10;;;;;;;13.42;100.00;100082.97;5102684;28;20035;-64
2022/06/17 01:16:03;;;;;;;4.38;1.38;;;;;;;13.24;100.00;100076.50;5099622;28;20402;-62
2022/06/17 01:18:50;;;;;;;4.43;1.10;;;;;;;13.25;100.00;100070.34;5102180;27;20080;-64
2022/06/17 01:21:50;;;;;;;4.15;1.05;;;;;;;13.20;100.00;100091.53;5129317;27;20040;-63
2022/06/17 01:24:35;;;;;;;2.00;0.95;;;;;;;13.14;100.00;100093.47;5102997;27;20048;-63
2022/06/17 01:27:24;;;;;;;3.15;1.10;;;;;;;13.10;100.00;100095.34;5086043;28;20039;-62
2022/06/17 01:30:12;;;;;;;4.70;0.95;;;;;;;13.09;100.00;100091.84;5114000;27;20031;-62
2022/06/17 01:32:57;;;;;;;2.58;0.90;;;;;;;12.99;100.00;100090.41;5100900;28;20047;-63
2022/06/17 01:35:50;;;;;;;1.73;0.80;;;;;;;12.96;100.00;100093.13;5102118;28;20621;-63
2022/06/17 01:38:38;;;;;;;2.63;0.85;;;;;;;12.93;100.00;100090.56;5113465;27;20036;-62
2022/06/17 01:41:26;;;;;;;2.15;1.00;;;;;;;12.98;100.00;100100.97;5114301;27;20575;-63
2022/06/17 01:44:19;;;;;;;2.53;0.90;;;;;;;12.95;100.00;100103.69;5102402;28;20071;-62
2022/06/17 01:47:11;;;;;;;2.42;0.90;;;;;;;12.90;100.00;100100.31;5113239;27;20043;-62
2022/06/17 01:50:01;;;;;;;1.27;0.70;;;;;;;12.88;100.00;100096.91;5117646;27;20043;-63
2022/06/17 01:52:54;;;;;;;3.70;0.85;;;;;;;12.81;100.00;100107.59;5105462;27;20040;-62
2022/06/17 01:55:41;;;;;;;;;;;;;;;12.80;100.00;100099.75;5096892;27;20047;-64
2022/06/17 01:58:37;;;;;;;2.67;0.85;;;;;;;12.73;100.00;100092.94;5104606;27;19919;-62
2022/06/17 02:01:24;;;;;;;2.15;0.82;;;;;;;12.71;100.00;100094.78;5102890;27;20036;-62
2022/06/17 02:04:18;;;;;;;1.45;0.95;;;;;;;12.55;100.00;100097.84;5100275;27;20072;-64
2022/06/17 02:07:21;;;;;;;6.00;1.25;;;;;;;12.55;100.00;100099.63;5100362;27;20638;-62
2022/06/17 02:10:06;;;;;;;1.48;0.90;;;;;;;12.46;100.00;100098.09;5099499;28;20040;-62
2022/06/17 02:12:52;;;;;;;1.67;0.70;;;;;;;12.45;100.00;100096.38;5114611;27;20053;-62
2022/06/17 02:15:37;;;;;;;2.67;0.52;;;;;;;12.43;100.00;100094.69;5105723;27;20036;-63
2022/06/17 02:18:31;;;;;;;0.77;0.57;;;;;;;12.43;100.00;100097.31;5104047;27;20039;-64
2022/06/17 02:21:28;;;;;;;1.77;0.70;;;;;;;12.33;100.00;100084.44;5104093;27;20028;-63
2022/06/17 02:24:15;;;;;;;1.15;0.70;;;;;;;12.36;100.00;100102.75;5102075;27;20043;-63
2022/06/17 02:27:03;;;;;;;1.55;0.40;;;;;;;12.32;100.00;100101.13;5104682;28;20039;-64
2022/06/17 02:29:49;;;;;;;1.08;0.57;;;;;;;12.26;100.00;100100.44;5107941;27;20048;-65
2022/06/17 02:32:35;;;;;;;1.95;0.68;;;;;;;12.27;100.00;100116.13;5109924;27;20147;-63
2022/06/17 02:35:40;;;;;;;3.60;0.68;;;;;;;12.22;100.00;100117.13;5103938;28;20501;-64
2022/06/17 02:38:29;;;;;;;1.45;0.80;;;;;;;12.22;100.00;100122.41;5107224;27;20040;-63
2022/06/17 02:41:19;;;;;;;3.35;0.80;;;;;;;12.14;100.00;100128.72;5106133;27;20043;-63
2022/06/17 02:44:16;;;;;;;2.33;0.50;;;;;;;12.11;100.00;100126.16;5104532;27;20488;-64
2022/06/17 02:47:02;;;;;;;2.30;0.73;;;;;;;12.05;100.00;100121.06;5103866;28;20032;-65
2022/06/17 02:49:47;;;;;;;1.58;0.80;;;;;;;12.00;100.00;100109.84;5109890;27;20039;-64
2022/06/17 02:52:39;;;;;;;1.55;0.60;;;;;;;11.99;100.00;100115.13;5110474;27;20095;-64
2022/06/17 02:55:38;;;;;;;3.03;0.43;;;;;;;12.03;100.00;100122.91;5129937;27;20035;-64
2022/06/17 02:59:03;;;;;;;1.65;0.52;;;;;;;11.98;100.00;100135.28;5103402;28;20039;-63
2022/06/17 03:01:51;;;;;;;1.23;0.50;;;;;;;12.01;100.00;100121.22;5073428;28;20449;-64
2022/06/17 03:04:48;;;;;;;1.70;0.35;;;;;;;11.99;100.00;100129.13;5109013;27;20051;-63
2022/06/17 03:07:33;;;;;;;2.13;0.50;;;;;;;11.95;100.00;100135.34;5103758;28;20122;-64
2022/06/17 03:10:34;;;;;;;0.85;0.40;;;;;;;11.90;100.00;100134.63;5113080;28;20038;-63
2022/06/17 03:13:25;;;;;;;0.90;0.40;;;;;;;11.87;100.00;100139.94;5100791;28;20032;-64
2022/06/17 03:16:12;;;;;;;3.17;0.57;;;;;;;11.81;100.00;100140.91;5107234;28;20035;-64
2022/06/17 03:18:58;;;;;;;3.30;0.65;;;;;;;11.93;100.00;100151.16;5132458;27;20040;-65
2022/06/17 03:21:44;;;;;;;0.77;0.35;;;;;;;11.87;100.00;100150.44;5102722;28;20055;-66
2022/06/17 03:24:42;;;;;;;1.40;0.50;;;;;;;11.89;100.00;100164.38;5105312;28;20044;-64
2022/06/17 03:27:27;;;;;;;2.72;0.68;;;;;;;11.87;100.00;100169.66;5116408;27;20359;-65
2022/06/17 03:30:16;;;;;;;2.20;0.90;;;;;;;11.94;100.00;100173.00;5106528;28;20036;-64
2022/06/17 03:33:13;;;;;;;1.42;0.77;;;;;;;12.01;100.00;100174.56;5092943;28;20146;-62
2022/06/17 03:36:04;;;;;;;1.52;0.70;;;;;;;12.01;100.00;100184.22;5104926;28;20382;-64
2022/06/17 03:38:55;;;;;;;3.50;0.50;;;;;;;11.81;100.00;100172.41;5107740;28;20658;-65
2022/06/17 03:41:50;;;;;;;2.05;0.60;;;;;;;11.87;100.00;100185.41;5104941;28;20044;-65
2022/06/17 03:44:50;;;;;;;1.00;0.40;;;;;;;11.93;100.00;100195.78;5103335;28;20490;-64
2022/06/17 03:47:49;;;;;;;2.58;0.77;;;;;;;11.86;100.00;100190.69;5107119;28;20043;-63
2022/06/17 03:50:38;;;;;;;3.85;0.77;;;;;;;12.02;100.00;100199.06;5109605;28;20043;-64
2022/06/17 03:53:35;;;;;;;2.67;0.77;;;;;;;12.09;100.00;100203.25;5129405;27;20048;-64
2022/06/17 03:56:23;;;;;;;1.15;0.60;;;;;;;12.21;100.00;100208.19;5106558;28;20039;-63
2022/06/17 03:59:16;;;;;;;1.65;0.60;;;;;;;12.41;100.00;100212.94;5104955;28;20040;-63
2022/06/17 04:02:09;;;;;;;1.45;0.90;;;;;;;12.51;100.00;100209.19;5119072;27;20603;-62
2022/06/17 04:04:53;;;;;;;5.10;0.82;;;;;;;12.60;100.00;100219.44;5114262;27;20477;-63
2022/06/17 04:07:38;;;;;;;1.73;1.10;;;;;;;12.85;100.00;100227.50;5118050;27;20043;-63
2022/06/17 04:10:28;;;;;;;2.00;0.60;;;;;;;13.18;100.00;100224.81;5108575;27;20043;-65
2022/06/17 04:13:21;;;;;;;2.20;0.60;;;;;;;13.70;100.00;100225.91;5110080;28;20048;-64
2022/06/17 04:16:22;;;;;;;0.55;0.47;;;;;;;13.97;100.00;100228.56;5109292;27;20036;-64
2022/06/17 04:19:17;;;;;;;1.00;0.57;;;;;;;14.38;100.00;100229.84;5121591;27;20122;-65
2022/06/17 04:22:42;;;;;;;1.13;0.45;;;;;;;14.74;100.00;100234.78;5093130;28;20118;-64
2022/06/17 04:25:53;;;;;;;2.67;0.60;;;;;;;14.95;100.00;100241.09;5085174;28;20071;-66
2022/06/17 04:28:50;;;;;;;;;;;;;;;15.51;100.00;100235.47;5111026;28;20040;-66
2022/06/17 04:31:37;;;;;;;2.28;0.60;;;;;;;15.41;100.00;100231.47;5119612;27;19927;-65
2022/06/17 04:34:27;;;;;;;2.33;0.70;;;;;;;15.70;100.00;100233.00;5106974;28;20035;-66
2022/06/17 04:37:21;;;;;;;0.77;0.68;;;;;;;15.78;100.00;100232.69;5108919;27;20088;-65
2022/06/17 04:40:37;;;;;;;2.40;0.73;;;;;;;15.64;100.00;100236.69;5101478;27;20455;-63
2022/06/17 04:43:47;;;;;;;1.77;0.47;;;;;;;15.90;100.00;100237.47;5093655;28;20044;-67
2022/06/17 04:47:08;;;;;;;2.70;0.55;;;;;;;15.76;100.00;100238.03;5102575;27;20547;-65
2022/06/17 04:50:04;;;;;;;5.00;0.55;;;;;;;16.41;100.00;100253.88;5103466;28;20482;-68
2022/06/17 04:52:57;;;;;;;1.10;0.65;;;;;;;16.64;100.00;100261.72;5107482;27;20032;-66
2022/06/17 04:55:44;;;;;;;0.80;0.43;;;;;;;16.76;100.00;100268.28;5103868;27;20051;-67
2022/06/17 04:58:43;;;;;;;1.35;0.70;;;;;;;16.38;100.00;100269.88;5103347;28;20475;-66
2022/06/17 05:01:30;;;;;;;1.02;0.35;;;;;;;17.02;100.00;100257.41;5102523;27;20470;-67
2022/06/17 05:04:25;;;;;;;3.47;0.80;;;;;;;16.65;100.00;100266.09;5104347;28;20044;-65
2022/06/17 05:07:18;;;;;;;3.92;0.55;;;;;;;17.45;100.00;100265.19;5102416;28;20051;-68
2022/06/17 05:10:07;;;;;;;1.25;0.80;;;;;;;17.28;100.00;100261.53;5101416;27;20980;-64
2022/06/17 05:13:23;;;;;;;1.15;0.38;;;;;;;17.55;100.00;100258.56;5106479;28;20696;-64
2022/06/17 05:16:12;;;;;;;1.95;0.50;;;;;;;16.90;100.00;100259.75;5104252;27;20032;-67
2022/06/17 05:18:58;;;;;;;1.80;0.32;;;;;;;17.29;100.00;100251.84;5104622;27;20051;-66
2022/06/17 05:21:43;;;;;;;0.98;0.40;;;;;;;16.94;100.00;100264.00;5105216;27;20443;-68
2022/06/17 05:24:36;;;;;;;1.65;0.50;;;;;;;17.76;100.00;100256.69;5106429;27;20054;-66
2022/06/17 05:27:20;;;;;;;1.92;0.70;;;;;;;17.97;100.00;100257.47;5103269;27;20040;-66
2022/06/17 05:30:06;;;;;;;1.40;0.40;;;;;;;18.11;100.00;100260.31;5104646;27;20043;-68
2022/06/17 05:32:55;;;;;;;3.53;0.60;;;;;;;18.74;100.00;100251.88;5104272;28;20044;-67
2022/06/17 05:35:42;;;;;;;1.50;0.50;;;;;;;18.89;100.00;100263.50;5102502;28;20047;-69
2022/06/17 05:38:29;;;;;;;2.25;0.60;;;;;;;17.70;100.00;100247.22;5101503;27;20122;-65
2022/06/17 05:41:17;;;;;;;2.15;0.50;;;;;;;17.96;100.00;100272.50;5102708;28;20036;-68
2022/06/17 05:44:02;;;;;;;1.98;0.68;;;;;;;18.05;100.00;100257.09;5110543;27;20371;-67
2022/06/17 05:46:54;;;;;;;0.80;0.50;;;;;;;18.48;100.00;100261.13;5105904;27;20076;-67
2022/06/17 05:49:45;;;;;;;3.85;0.30;;;;;;;19.08;100.00;100258.94;5108337;28;20067;-66
2022/06/17 05:53:08;;;;;;;1.48;0.40;;;;;;;19.24;100.00;100256.31;5087683;28;20407;-69
2022/06/17 05:56:19;;;;;;;1.63;0.32;;;;;;;18.91;100.00;100258.94;5098045;27;20083;-67
2022/06/17 05:59:04;;;;;;;1.55;0.50;;;;;;;19.03;100.00;100253.00;5111456;27;20032;-67
2022/06/17 06:01:49;;;;;;;2.47;0.57;;;;;;;20.04;100.00;100266.06;5114145;27;20035;-67
2022/06/17 06:04:47;;;;;;;1.42;0.40;;;;;;;20.03;100.00;100256.38;5096930;27;20032;-65
2022/06/17 06:07:32;;;;;;;3.85;0.50;;;;;;;20.41;100.00;100260.41;5109840;27;20065;-67
2022/06/17 06:10:18;;;;;;;3.28;0.50;;;;;;;20.23;100.00;100254.38;5108103;27;20035;-66
2022/06/17 06:13:03;;;;;;;1.98;0.40;;;;;;;20.78;99.87;100254.66;5114920;27;20036;-66
2022/06/17 06:15:55;;;;;;;2.13;0.43;;;;;;;20.44;98.15;100258.44;5134186;27;20054;-65
2022/06/17 06:18:39;;;;;;;2.67;0.65;;;;;;;19.81;100.00;100250.56;5110329;27;20055;-65
2022/06/17 06:21:34;;;;;;;2.38;0.70;;;;;;;19.58;100.00;100259.78;5106776;27;20047;-69
2022/06/17 06:24:19;;;;;;;1.75;0.50;;;;;;;20.10;100.00;100250.72;5109287;27;20039;-67
2022/06/17 06:27:04;;;;;;;3.47;0.52;;;;;;;20.28;100.00;100258.47;5111285;27;20051;-67
2022/06/17 06:30:03;;;;;;;3.38;0.95;;;;;;;20.17;98.27;100250.25;5098700;27;20031;-66
2022/06/17 06:32:52;;;;;;;1.73;0.70;;;;;;;21.08;96.23;100244.88;5127372;27;20515;-69
2022/06/17 06:35:38;;;;;;;1.85;0.52;;;;;;;20.51;97.68;100251.84;5106994;27;20482;-67
2022/06/17 06:38:23;;;;;;;2.28;1.05;;;;;;;20.70;99.63;100248.06;5115345;27;20039;-64
2022/06/17 06:41:09;;;;;;;3.17;1.00;;;;;;;20.31;96.90;100254.75;5109411;27;20032;-64
2022/06/17 06:43:55;;;;;;;2.72;0.95;;;;;;;20.42;94.66;100240.84;5105426;28;20040;-67
2022/06/17 06:47:05;;;;;;;4.07;0.52;;;;;;;20.85;95.49;100248.94;5090426;27;20056;-67
2022/06/17 06:50:19;;;;;;;2.80;0.70;;;;;;;21.16;93.98;100250.59;5106176;27;20035;-63
2022/06/17 06:53:04;;;;;;;2.92;0.63;;;;;;;21.37;90.98;100245.75;5113784;27;20044;-66
2022/06/17 06:55:49;;;;;;;4.22;1.30;;;;;;;20.79;93.76;100258.16;5109774;27;20462;-64
2022/06/17 06:58:33;;;;;;;2.03;0.50;;;;;;;20.04;98.00;100258.06;5117272;27;20489;-66
2022/06/17 07:01:18;;;;;;;1.73;0.57;;;;;;;21.00;98.22;100261.34;5116541;27;20104;-68
2022/06/17 07:04:03;;;;;;;3.08;1.05;;;;;;;22.23;92.73;100256.22;5110392;27;20379;-65
2022/06/17 07:06:50;;;;;;;2.05;0.57;;;;;;;22.26;89.59;100264.91;5107764;28;20040;-65
2022/06/17 07:09:34;;;;;;;3.08;0.50;;;;;;;23.33;86.09;100264.69;5104961;27;20043;-64
2022/06/17 07:12:18;;;;;;;3.60;0.50;;;;;;;22.95;87.41;100249.56;5116511;28;20035;-65
2022/06/17 07:15:04;;;;;;;3.72;0.70;;;;;;;22.20;88.05;100259.09;5107376;28;20032;-63
2022/06/17 07:18:03;;;;;;;0.70;0.38;;;;;;;21.70;90.08;100267.59;5106291;28;20424;-65
2022/06/17 07:20:52;;;;;;;4.40;0.73;;;;;;;21.15;90.69;100272.84;5107178;28;20032;-66
2022/06/17 07:23:39;;;;;;;1.45;0.50;;;;;;;22.54;87.22;100277.25;5108004;28;20092;-66
2022/06/17 07:26:25;;;;;;;2.63;0.73;;;;;;;22.50;87.32;100270.41;5104992;28;20043;-65
2022/06/17 07:29:09;;;;;;;1.90;0.55;;;;;;;21.37;89.83;100267.06;5135383;27;20043;-63
2022/06/17 07:31:54;;;;;;;1.48;0.65;;;;;;;21.08;92.68;100276.84;5108829;28;20066;-67
2022/06/17 07:34:39;;;;;;;3.83;0.77;;;;;;;20.85;95.64;100283.56;5110632;28;20048;-66
2022/06/17 07:40:28;;;;;;;2.25;0.40;;;;;;;19.70;94.80;100285.72;5110254;28;20043;-67
2022/06/17 07:43:14;;;;;;;1.73;0.63;;;;;;;21.15;89.97;100287.00;5113449;27;20047;-65
2022/06/17 07:46:00;;;;;;;1.33;0.50;;;;;;;22.11;87.47;100289.88;5114984;27;20047;-66
2022/06/17 07:48:45;;;;;;;1.55;0.50;;;;;;;23.17;85.08;100283.66;5114347;27;20417;-65
2022/06/17 07:51:29;;;;;;;1.67;0.50;;;;;;;22.91;88.77;100292.56;5112906;27;20032;-69
2022/06/17 07:54:15;;;;;;;2.88;0.43;;;;;;;20.46;91.12;100292.91;5110739;27;20036;-65
2022/06/17 07:56:59;;;;;;;3.03;0.43;;;;;;;20.69;93.36;100296.91;5112232;27;21541;-67
2022/06/17 07:59:43;;;;;;;1.55;0.22;;;;;;;20.32;96.48;100296.38;5111024;27;20040;-66
2022/06/17 08:02:29;;;;;;;6.03;0.47;;;;;;;22.09;88.58;100302.44;5107551;27;20043;-63
2022/06/17 08:05:13;;;;;;;1.05;0.40;;;;;;;22.54;88.62;100295.91;5116494;27;20035;-68
2022/06/17 08:07:58;;;;;;;1.40;0.30;;;;;;;23.51;88.81;100295.47;5113773;27;20042;-64
2022/06/17 08:10:42;;;;;;;1.67;0.40;;;;;;;23.03;86.06;100299.75;5099896;27;20047;-67
2022/06/17 08:13:28;;;;;;;2.53;0.40;;;;;;;21.73;87.55;100303.88;5113443;27;20032;-66
2022/06/17 08:16:13;;;;;;;1.33;0.32;;;;;;;22.47;84.57;100293.78;5113725;27;20528;-64
2022/06/17 08:18:58;;;;;;;2.42;0.30;;;;;;;23.56;81.76;100301.34;5108651;27;20035;-67
2022/06/17 08:21:42;;;;;;;3.03;0.50;;;;;;;23.96;79.04;100306.53;5108717;27;20054;-67
2022/06/17 08:24:27;;;;;;;3.35;0.30;;;;;;;23.83;82.50;100302.19;5117284;27;20032;-65
2022/06/17 08:27:11;;;;;;;1.25;0.60;;;;;;;23.20;77.48;100304.78;5108801;27;20032;-64
2022/06/17 08:29:55;;;;;;;1.73;0.68;;;;;;;24.10;76.88;100302.81;5112799;27;20521;-64
2022/06/17 08:32:46;;;;;;;1.48;0.43;;;;;;;24.50;77.30;100297.19;5116791;27;20122;-64
2022/06/17 08:35:34;;;;;;;1.73;0.40;;;;;;;23.07;81.07;100309.28;5114453;27;20044;-66
2022/06/17 08:38:26;;;;;;;1.35;0.25;;;;;;;21.90;85.45;100302.78;5116930;27;20036;-66
2022/06/17 08:41:10;;;;;;;;;;;;;;;21.08;85.77;100308.78;5108085;27;20039;-65
2022/06/17 08:44:04;;;;;;;1.85;0.38;;;;;;;22.25;84.85;100313.00;5110110;28;19924;-66
2022/06/17 08:47:07;;;;;;;3.72;0.73;;;;;;;22.94;86.75;100317.25;5106982;27;20093;-65
2022/06/17 08:50:28;;;;;;;2.28;0.50;;;;;;;21.93;85.70;100321.25;5110312;27;20119;-68
2022/06/17 08:53:19;;;;;;;1.85;0.47;;;;;;;21.53;87.70;100317.59;5108290;27;20058;-65
2022/06/17 08:56:08;;;;;;;3.75;0.95;;;;;;;23.90;83.01;100327.50;5108538;27;20372;-64
2022/06/17 08:58:56;;;;;;;2.85;0.50;;;;;;;23.78;83.87;100326.56;5114024;27;20043;-63
2022/06/17 09:01:50;;;;;;;1.77;0.50;;;;;;;23.49;79.19;100325.94;5103644;27;20916;-66
2022/06/17 09:05:13;;;;;;;1.15;0.38;;;;;;;22.66;82.40;100323.63;5112402;27;20048;-64
2022/06/17 09:08:03;;;;;;;;;;;;;;;23.29;82.94;100320.16;5067697;28;20070;-65
2022/06/17 09:11:20;;;;;;;0.75;0.32;;;;;;;24.98;78.30;100329.25;5049929;28;19924;-64
2022/06/17 09:14:05;;;;;;;1.65;0.70;;;;;;;24.42;77.50;100323.72;5106197;27;20036;-67
2022/06/17 09:17:22;;;;;;;1.88;0.73;;;;;;;24.20;76.33;100319.06;5108281;27;20054;-63
2022/06/17 09:20:10;;;;;;;1.50;0.40;;;;;;;24.34;74.83;100315.34;5109445;27;20055;-66
2022/06/17 09:23:00;;;;;;;2.67;0.30;;;;;;;24.18;75.65;100316.50;5107632;27;20039;-64
2022/06/17 09:25:47;;;;;;;1.70;0.38;;;;;;;25.48;72.22;100320.94;5107095;27;20118;-63
2022/06/17 09:28:37;;;;;;;2.58;0.32;;;;;;;25.07;72.88;100328.56;5104119;27;20043;-63
2022/06/17 09:31:38;;;;;;;2.97;0.32;;;;;;;26.69;73.71;100321.84;5109742;27;20047;-63
2022/06/17 09:34:40;;;;;;;1.35;0.38;;;;;;;25.75;73.35;100315.22;5108252;27;20044;-64
2022/06/17 09:37:37;;;;;;;1.75;0.50;;;;;;;24.91;72.62;100328.88;5112637;27;20401;-64
2022/06/17 09:40:42;;;;;;;1.35;0.43;;;;;;;23.14;75.04;100320.38;5108035;27;20048;-67
2022/06/17 09:43:35;;;;;;;2.05;0.28;;;;;;;23.88;75.34;100321.41;5102484;28;20118;-63
2022/06/17 09:47:10;;;;;;;1.38;0.22;;;;;;;22.22;81.05;100324.72;5110618;27;20101;-66
2022/06/17 09:50:02;;;;;;;2.42;0.40;;;;;;;21.68;80.66;100324.63;5107652;27;20047;-63
2022/06/17 09:53:26;;;;;;;1.80;0.52;;;;;;;21.67;80.90;100320.25;5110154;27;20096;-64
2022/06/17 09:56:17;;;;;;;3.05;0.43;;;;;;;23.84;77.16;100323.44;5044124;28;20041;-66
2022/06/17 09:59:01;;;;;;;2.90;0.30;;;;;;;24.74;71.67;100328.47;5112119;27;20051;-64
2022/06/17 10:01:47;;;;;;;3.65;0.65;;;;;;;23.51;73.52;100319.53;5112120;27;20062;-65
2022/06/17 10:04:33;;;;;;;1.15;0.35;;;;;;;24.86;71.11;100320.34;5107608;27;20047;-65
2022/06/17 10:07:38;;;;;;;1.88;0.40;;;;;;;23.54;78.84;100323.81;5109044;27;20032;-64
2022/06/17 10:10:49;;;;;;;1.70;0.50;;;;;;;23.93;78.21;100328.13;5106435;27;20039;-64
2022/06/17 10:13:55;;;;;;;4.10;0.40;;;;;;;23.53;76.64;100330.13;5110639;27;20127;-63
2022/06/17 10:20:03;;;;;;;1.58;0.50;;;;;;;24.00;78.71;100340.09;5109319;27;20040;-68
2022/06/17 10:23:09;;;;;;;4.50;0.50;;;;;;;25.73;74.07;100350.19;5102573;27;20035;-66
2022/06/17 10:26:21;;;;;;;1.27;0.22;;;;;;;23.99;74.36;100337.56;5106134;27;20032;-65
2022/06/17 10:29:31;;;;;;;2.85;0.30;;;;;;;23.94;76.76;100337.00;5106720;27;20052;-64
2022/06/17 10:32:15;;;;;;;2.03;0.20;;;;;;;24.26;72.44;100319.47;5106134;27;20551;-65
2022/06/17 10:35:03;;;;;;;2.40;0.40;;;;;;;24.57;71.47;100324.38;5113452;27;20052;-64
2022/06/17 10:37:47;;;;;;;1.70;0.55;;;;;;;25.55;71.08;100328.41;5112065;27;20466;-63
2022/06/17 10:40:36;;;;;;;1.50;0.25;;;;;;;25.42;71.40;100328.50;5093849;27;20088;-65
2022/06/17 10:43:27;;;;;;;3.03;0.32;;;;;;;23.94;72.56;100331.66;5109959;27;20047;-66
2022/06/17 10:46:36;;;;;;;3.30;0.43;;;;;;;22.77;70.91;100341.56;5135565;27;20035;-64
2022/06/17 10:49:32;;;;;;;3.05;0.73;;;;;;;22.58;75.40;100325.94;5110419;27;20047;-65
2022/06/17 10:52:24;;;;;;;1.63;0.35;;;;;;;22.77;73.04;100338.91;5097098;27;20386;-68
2022/06/17 10:55:20;;;;;;;4.18;0.60;;;;;;;23.25;72.75;100317.84;5119186;27;20032;-65
2022/06/17 10:58:20;;;;;;;1.88;0.30;;;;;;;24.79;66.71;100328.97;5100987;27;20057;-63
2022/06/17 11:01:16;;;;;;;1.00;0.50;;;;;;;23.24;70.06;100303.63;5110804;27;20036;-63
2022/06/17 11:04:30;;;;;;;1.70;0.32;;;;;;;22.54;72.29;100322.59;5110088;27;20044;-66
2022/06/17 11:07:20;;;;;;;1.65;0.40;;;;;;;22.49;73.37;100315.84;5100249;28;20123;-64
2022/06/17 11:10:13;;;;;;;1.25;0.40;;;;;;;22.13;73.05;100331.50;5110306;27;20032;-66
2022/06/17 11:13:06;;;;;;;2.53;0.30;;;;;;;23.73;70.15;100326.91;5106441;28;20040;-68
2022/06/17 11:15:57;;;;;;;2.22;0.75;;;;;;;24.85;72.03;100313.25;5110152;28;20043;-62
2022/06/17 11:18:45;;;;;;;3.50;0.73;;;;;;;25.55;67.55;100322.19;5111853;28;20043;-65
2022/06/17 11:21:35;;;;;;;2.90;1.13;;;;;;;24.65;66.07;100319.31;5105300;28;20471;-65
2022/06/17 11:24:28;;;;;;;3.75;1.30;;;;;;;23.62;68.86;100284.00;5094218;28;20040;-67
2022/06/17 11:27:26;;;;;;;3.90;0.57;;;;;;;23.56;68.70;100328.09;5108575;28;20051;-66
2022/06/17 11:30:34;;;;;;;1.67;0.52;;;;;;;23.85;70.25;100327.81;5117699;28;20040;-65
2022/06/17 11:33:40;;;;;;;3.00;1.52;;;;;;;24.09;69.15;100322.53;5109239;28;20051;-63
2022/06/17 11:36:24;;;;;;;1.45;0.90;;;;;;;23.47;71.68;100327.88;5103214;28;20040;-67
2022/06/17 11:39:33;;;;;;;1.83;0.50;;;;;;;23.53;70.72;100330.13;5107651;28;20062;-66
2022/06/17 11:42:24;;;;;;;1.02;0.50;;;;;;;24.39;71.60;100323.91;5103604;28;20036;-64
2022/06/17 11:45:15;;;;;;;1.63;0.52;;;;;;;23.80;72.03;100330.00;5099522;28;20533;-67
2022/06/17 11:48:20;;;;;;;4.00;1.33;;;;;;;22.83;73.38;100341.16;5107937;28;20051;-65
2022/06/17 11:51:10;;;;;;;3.30;0.82;;;;;;;22.45;73.76;100341.03;5106501;28;20477;-66
2022/06/17 11:54:06;;;;;;;1.05;0.20;;;;;;;22.63;73.33;100335.34;5101812;28;20064;-65
2022/06/17 11:56:52;;;;;;;2.08;0.80;;;;;;;23.76;76.11;100313.31;5107607;28;20040;-69
2022/06/17 11:59:43;;;;;;;11.02;7.05;;;;;;;24.18;70.00;100319.19;5109049;28;20031;-66
2022/06/17 12:02:28;;;;;;;5.30;3.33;;;;;;;25.18;67.00;100327.75;5100415;28;20397;-65
2022/06/17 12:05:25;;;;;;;5.95;0.85;;;;;;;23.93;67.81;100325.47;5101386;28;20043;-63
2022/06/17 12:08:13;;;;;;;4.63;1.58;;;;;;;23.59;73.48;100321.63;5105733;28;20043;-65
2022/06/17 12:11:04;;;;;;;3.08;1.98;;;;;;;23.20;70.32;100319.97;5103106;28;20031;-65
2022/06/17 12:13:54;;;;;;;0.73;0.50;;;;;;;22.91;71.82;100317.47;5101855;28;20044;-66
2022/06/17 12:16:42;;;;;;;2.83;1.30;;;;;;;22.98;72.02;100324.13;5100648;28;20032;-68
2022/06/17 12:19:27;;;;;;;1.65;1.05;;;;;;;22.55;72.58;100329.66;5104497;28;20039;-65
2022/06/17 12:22:38;;;;;;;3.97;2.80;;;;;;;23.50;72.19;100319.66;5102116;28;20434;-66
2022/06/17 12:25:50;;;;;;;5.68;1.13;;;;;;;24.74;67.68;100307.03;5105540;27;20036;-68
2022/06/17 12:29:04;;;;;;;1.73;1.25;;;;;;;24.35;65.76;100309.91;5102806;27;20047;-66
2022/06/17 12:31:53;;;;;;;2.25;1.00;;;;;;;23.99;69.54;100308.13;5106511;27;20569;-64
2022/06/17 12:35:12;;;;;;;3.08;1.20;;;;;;;24.27;69.57;100305.09;5108772;27;20035;-64
2022/06/17 12:38:27;;;;;;;2.17;1.00;;;;;;;24.89;67.65;100309.41;5110299;27;20598;-67
2022/06/17 12:41:16;;;;;;;3.22;0.68;;;;;;;25.87;69.61;100295.50;5107134;27;20044;-69
2022/06/17 12:44:26;;;;;;;4.93;0.63;;;;;;;25.11;66.81;100303.22;5108814;27;20040;-69
2022/06/17 12:47:21;;;;;;;1.35;0.45;;;;;;;24.44;64.17;100295.88;5108184;27;20098;-67
2022/06/17 12:53:53;;;;;;;0.73;0.50;;;;;;;24.75;63.77;100290.00;5110758;27;20032;-66
2022/06/17 12:56:43;;;;;;;2.78;0.40;;;;;;;24.46;68.74;100279.66;5103581;27;20032;-62
2022/06/17 13:00:06;;;;;;;2.05;0.73;;;;;;;24.71;66.00;100300.94;5103446;27;20036;-65
2022/06/17 13:03:12;;;;;;;2.03;0.50;;;;;;;24.39;66.24;100291.78;5104715;27;20051;-65
2022/06/17 13:06:07;;;;;;;1.08;0.30;;;;;;;24.36;66.23;100286.66;5104014;28;20040;-68
2022/06/17 13:09:10;;;;;;;1.33;0.60;;;;;;;24.31;66.91;100292.38;5107375;27;20678;-64
2022/06/17 13:12:07;;;;;;;2.42;0.50;;;;;;;24.83;63.98;100292.91;5096972;27;20122;-67
2022/06/17 13:15:22;;;;;;;4.78;0.55;;;;;;;23.82;63.04;100289.75;5107564;27;20035;-66
2022/06/17 13:18:12;;;;;;;2.53;0.60;;;;;;;24.59;60.89;100285.81;5107973;27;20130;-64
2022/06/17 13:21:05;;;;;;;1.23;0.25;;;;;;;24.08;62.04;100274.47;5108880;27;20044;-65
2022/06/17 13:23:59;;;;;;;1.92;0.55;;;;;;;24.13;63.89;100272.31;5113440;27;20764;-67
2022/06/17 13:26:51;;;;;;;3.40;0.68;;;;;;;24.52;65.42;100281.03;5105416;27;20040;-67
2022/06/17 13:30:00;;;;;;;4.72;0.60;;;;;;;25.27;60.64;100262.69;5112295;27;20040;-71
2022/06/17 13:32:49;;;;;;;2.08;0.85;;;;;;;25.45;60.41;100259.50;5113733;27;20031;-65